sensor_id;sensor_type;location;lat;lon;timestamp;pressure;altitude;pressure_sealevel;temperature;humidity
7940;BME280;4015;48.888;9.226;2023-07-31T00:01:08;159358.84;;;16.38;80.32
7940;BME280;4015;48.888;9.226;2023-07-31T00:03:33;159351.19;;;16.35;80.86
7940;BME280;4015;48.888;9.226;2023-07-31T00:05:59;159363.97;;;16.40;80.25
7940;BME280;4015;48.888;9.226;2023-07-31T00:08:24;159326.81;;;16.25;81.57
7940;BME280;4015;48.888;9.226;2023-07-31T00:10:53;159334.53;;;16.28;81.67
7940;BME280;4015;48.888;9.226;2023-07-31T00:13:18;159311.41;;;16.19;81.32
7940;BME280;4015;48.888;9.226;2023-07-31T00:15:43;159325.53;;;16.25;81.19
7940;BME280;4015;48.888;9.226;2023-07-31T00:18:09;159302.47;;;16.15;82.14
7940;BME280;4015;48.888;9.226;2023-07-31T00:20:34;159347.28;;;16.33;80.33
7940;BME280;4015;48.888;9.226;2023-07-31T00:22:59;159340.91;;;16.31;80.90
7940;BME280;4015;48.888;9.226;2023-07-31T00:25:25;159344.75;;;16.32;80.66
7940;BME280;4015;48.888;9.226;2023-07-31T00:27:50;159329.34;;;16.26;81.02
7940;BME280;4015;48.888;9.226;2023-07-31T00:30:15;159331.91;;;16.27;81.12
7940;BME280;4015;48.888;9.226;2023-07-31T00:32:41;159288.38;;;16.10;81.65
7940;BME280;4015;48.888;9.226;2023-07-31T00:35:06;159288.38;;;16.10;79.85
7940;BME280;4015;48.888;9.226;2023-07-31T00:37:32;159312.69;;;16.19;81.41
7940;BME280;4015;48.888;9.226;2023-07-31T00:39:57;159264.00;;;16.00;82.49
7940;BME280;4015;48.888;9.226;2023-07-31T00:42:23;159278.09;;;16.06;81.34
7940;BME280;4015;48.888;9.226;2023-07-31T00:44:48;159269.09;;;16.02;82.10
7940;BME280;4015;48.888;9.226;2023-07-31T00:47:13;159274.25;;;16.04;82.63
7940;BME280;4015;48.888;9.226;2023-07-31T00:49:39;159328.06;;;16.26;82.09
7940;BME280;4015;48.888;9.226;2023-07-31T00:52:04;159326.81;;;16.25;81.74
7940;BME280;4015;48.888;9.226;2023-07-31T00:54:30;159305.03;;;16.16;81.56
7940;BME280;4015;48.888;9.226;2023-07-31T00:56:56;159302.47;;;16.15;81.65
7940;BME280;4015;48.888;9.226;2023-07-31T00:59:21;159312.69;;;16.19;81.59
7940;BME280;4015;48.888;9.226;2023-07-31T01:01:47;159311.41;;;16.19;81.92
7940;BME280;4015;48.888;9.226;2023-07-31T01:04:12;159293.47;;;16.12;81.42
7940;BME280;4015;48.888;9.226;2023-07-31T01:12:07;159220.41;;;15.83;83.25
7940;BME280;4015;48.888;9.226;2023-07-31T01:14:32;159247.34;;;15.94;82.47
7940;BME280;4015;48.888;9.226;2023-07-31T01:16:57;159258.88;;;15.98;81.24
7940;BME280;4015;48.888;9.226;2023-07-31T01:19:25;159242.22;;;15.91;82.17
7940;BME280;4015;48.888;9.226;2023-07-31T01:24:35;159219.13;;;15.82;81.97
7940;BME280;4015;48.888;9.226;2023-07-31T01:27:06;159211.47;;;15.79;83.04
7940;BME280;4015;48.888;9.226;2023-07-31T01:29:39;159243.50;;;15.92;82.64
7940;BME280;4015;48.888;9.226;2023-07-31T01:32:09;159267.84;;;16.02;82.74
7940;BME280;4015;48.888;9.226;2023-07-31T01:34:36;159271.72;;;16.03;83.14
7940;BME280;4015;48.888;9.226;2023-07-31T01:37:02;159310.16;;;16.18;81.58
7940;BME280;4015;48.888;9.226;2023-07-31T01:39:28;159308.88;;;16.18;81.04
7940;BME280;4015;48.888;9.226;2023-07-31T01:41:53;159292.22;;;16.11;81.88
7940;BME280;4015;48.888;9.226;2023-07-31T01:44:18;159289.66;;;16.10;82.42
7940;BME280;4015;48.888;9.226;2023-07-31T01:46:44;159302.47;;;16.15;81.95
7940;BME280;4015;48.888;9.226;2023-07-31T01:49:09;159306.31;;;16.17;82.98
7940;BME280;4015;48.888;9.226;2023-07-31T01:51:34;159290.94;;;16.11;83.45
7940;BME280;4015;48.888;9.226;2023-07-31T01:54:01;159279.38;;;16.06;82.81
7940;BME280;4015;48.888;9.226;2023-07-31T01:56:26;159270.38;;;16.03;82.58
7940;BME280;4015;48.888;9.226;2023-07-31T01:58:51;159244.78;;;15.93;83.00
7940;BME280;4015;48.888;9.226;2023-07-31T02:01:17;159205.03;;;15.77;83.78
7940;BME280;4015;48.888;9.226;2023-07-31T02:03:42;159221.69;;;15.83;83.73
7940;BME280;4015;48.888;9.226;2023-07-31T02:06:07;159203.75;;;15.76;84.01
7940;BME280;4015;48.888;9.226;2023-07-31T02:08:33;159190.94;;;15.71;84.36
7940;BME280;4015;48.888;9.226;2023-07-31T02:10:58;159174.28;;;15.64;84.81
7940;BME280;4015;48.888;9.226;2023-07-31T02:13:23;159187.09;;;15.70;84.73
7940;BME280;4015;48.888;9.226;2023-07-31T02:15:49;159192.25;;;15.72;85.00
7940;BME280;4015;48.888;9.226;2023-07-31T02:18:15;159135.81;;;15.49;85.90
7940;BME280;4015;48.888;9.226;2023-07-31T02:20:41;159133.25;;;15.48;85.70
7940;BME280;4015;48.888;9.226;2023-07-31T02:23:06;159130.69;;;15.47;85.98
7940;BME280;4015;48.888;9.226;2023-07-31T02:25:31;159140.91;;;15.51;85.25
7940;BME280;4015;48.888;9.226;2023-07-31T02:27:57;159171.72;;;15.63;85.17
7940;BME280;4015;48.888;9.226;2023-07-31T02:30:22;159166.56;;;15.61;84.78
7940;BME280;4015;48.888;9.226;2023-07-31T02:32:47;159175.59;;;15.65;85.15
7940;BME280;4015;48.888;9.226;2023-07-31T02:35:13;159176.88;;;15.66;85.02
7940;BME280;4015;48.888;9.226;2023-07-31T02:37:43;159146.06;;;15.53;85.75
7940;BME280;4015;48.888;9.226;2023-07-31T02:40:09;159148.63;;;15.54;85.74
7940;BME280;4015;48.888;9.226;2023-07-31T02:42:35;159147.34;;;15.54;85.96
7940;BME280;4015;48.888;9.226;2023-07-31T02:45:00;159153.75;;;15.56;86.38
7940;BME280;4015;48.888;9.226;2023-07-31T02:47:25;159174.28;;;15.64;86.06
7940;BME280;4015;48.888;9.226;2023-07-31T02:49:50;159196.09;;;15.73;85.70
7940;BME280;4015;48.888;9.226;2023-07-31T02:52:16;159187.09;;;15.70;85.60
7940;BME280;4015;48.888;9.226;2023-07-31T02:54:41;159183.25;;;15.68;86.02
7940;BME280;4015;48.888;9.226;2023-07-31T02:57:06;159187.09;;;15.70;85.58
7940;BME280;4015;48.888;9.226;2023-07-31T02:59:32;159183.25;;;15.68;84.51
7940;BME280;4015;48.888;9.226;2023-07-31T03:01:57;159156.28;;;15.57;86.15
7940;BME280;4015;48.888;9.226;2023-07-31T03:04:23;159152.47;;;15.56;85.78
7940;BME280;4015;48.888;9.226;2023-07-31T03:06:48;159157.56;;;15.58;85.34
7940;BME280;4015;48.888;9.226;2023-07-31T03:09:13;159151.19;;;15.55;84.80
7940;BME280;4015;48.888;9.226;2023-07-31T03:11:39;159152.47;;;15.56;84.47
7940;BME280;4015;48.888;9.226;2023-07-31T03:14:04;159148.63;;;15.54;83.74
7940;BME280;4015;48.888;9.226;2023-07-31T03:16:29;159133.25;;;15.48;85.14
7940;BME280;4015;48.888;9.226;2023-07-31T03:18:55;159147.34;;;15.54;85.26
7940;BME280;4015;48.888;9.226;2023-07-31T03:21:20;159205.03;;;15.77;83.70
7940;BME280;4015;48.888;9.226;2023-07-31T03:23:45;159176.88;;;15.66;84.03
7940;BME280;4015;48.888;9.226;2023-07-31T03:26:11;159211.47;;;15.79;83.31
7940;BME280;4015;48.888;9.226;2023-07-31T03:28:36;159237.06;;;15.89;82.12
7940;BME280;4015;48.888;9.226;2023-07-31T03:31:01;159251.16;;;15.95;82.43
7940;BME280;4015;48.888;9.226;2023-07-31T03:33:27;159251.16;;;15.95;83.13
7940;BME280;4015;48.888;9.226;2023-07-31T03:35:52;159237.06;;;15.89;82.92
7940;BME280;4015;48.888;9.226;2023-07-31T03:38:18;159253.72;;;15.96;82.63
7940;BME280;4015;48.888;9.226;2023-07-31T03:40:44;159222.97;;;15.84;83.60
7940;BME280;4015;48.888;9.226;2023-07-31T03:43:10;159203.75;;;15.76;83.15
7940;BME280;4015;48.888;9.226;2023-07-31T03:45:35;159212.75;;;15.80;83.08
7940;BME280;4015;48.888;9.226;2023-07-31T03:48:00;159201.19;;;15.75;82.59
7940;BME280;4015;48.888;9.226;2023-07-31T03:50:26;159197.38;;;15.74;82.56
7940;BME280;4015;48.888;9.226;2023-07-31T03:52:52;159170.44;;;15.63;83.91
7940;BME280;4015;48.888;9.226;2023-07-31T03:55:17;159164.00;;;15.60;84.39
7940;BME280;4015;48.888;9.226;2023-07-31T03:57:43;159188.38;;;15.70;82.66
7940;BME280;4015;48.888;9.226;2023-07-31T04:00:09;159192.25;;;15.72;83.30
7940;BME280;4015;48.888;9.226;2023-07-31T04:02:34;159189.66;;;15.71;83.53
7940;BME280;4015;48.888;9.226;2023-07-31T04:05:00;159180.72;;;15.67;83.63
7940;BME280;4015;48.888;9.226;2023-07-31T04:07:25;159199.91;;;15.75;83.27
7940;BME280;4015;48.888;9.226;2023-07-31T04:09:50;159215.31;;;15.81;83.61
7940;BME280;4015;48.888;9.226;2023-07-31T04:12:15;159211.47;;;15.79;83.63
7940;BME280;4015;48.888;9.226;2023-07-31T04:14:41;159271.72;;;16.03;83.84
7940;BME280;4015;48.888;9.226;2023-07-31T04:17:06;159296.03;;;16.13;81.37
7940;BME280;4015;48.888;9.226;2023-07-31T04:19:31;159267.84;;;16.02;83.14
7940;BME280;4015;48.888;9.226;2023-07-31T04:21:57;159285.75;;;16.09;81.72
7940;BME280;4015;48.888;9.226;2023-07-31T04:24:22;159296.03;;;16.13;82.22
7940;BME280;4015;48.888;9.226;2023-07-31T04:26:50;159302.47;;;16.15;81.88
7940;BME280;4015;48.888;9.226;2023-07-31T04:29:15;159294.75;;;16.12;81.80
7940;BME280;4015;48.888;9.226;2023-07-31T04:31:41;159355.00;;;16.36;81.38
7940;BME280;4015;48.888;9.226;2023-07-31T04:34:06;159347.28;;;16.33;81.50
7940;BME280;4015;48.888;9.226;2023-07-31T04:36:33;159374.22;;;16.44;81.17
7940;BME280;4015;48.888;9.226;2023-07-31T04:38:58;159402.44;;;16.55;81.07
7940;BME280;4015;48.888;9.226;2023-07-31T04:41:23;159408.84;;;16.58;80.57
7940;BME280;4015;48.888;9.226;2023-07-31T04:43:49;159425.50;;;16.64;81.22
7940;BME280;4015;48.888;9.226;2023-07-31T04:46:15;159453.78;;;16.76;80.03
7940;BME280;4015;48.888;9.226;2023-07-31T04:48:40;159506.31;;;16.96;79.81
7940;BME280;4015;48.888;9.226;2023-07-31T04:51:05;159484.53;;;16.88;80.55
7940;BME280;4015;48.888;9.226;2023-07-31T04:53:31;159498.66;;;16.93;79.24
7940;BME280;4015;48.888;9.226;2023-07-31T04:55:56;159543.56;;;17.11;79.69
7940;BME280;4015;48.888;9.226;2023-07-31T04:58:21;159569.16;;;17.21;79.71
7940;BME280;4015;48.888;9.226;2023-07-31T05:00:47;159589.72;;;17.30;79.26
7940;BME280;4015;48.888;9.226;2023-07-31T05:03:12;159638.47;;;17.49;78.28
7940;BME280;4015;48.888;9.226;2023-07-31T05:05:37;159667.97;;;17.61;77.09
7940;BME280;4015;48.888;9.226;2023-07-31T05:08:03;159649.97;;;17.53;76.98
7940;BME280;4015;48.888;9.226;2023-07-31T05:10:28;159685.94;;;17.68;76.33
7940;BME280;4015;48.888;9.226;2023-07-31T05:12:53;159684.66;;;17.67;75.33
7940;BME280;4015;48.888;9.226;2023-07-31T05:15:19;159716.75;;;17.80;75.81
7940;BME280;4015;48.888;9.226;2023-07-31T05:17:44;159734.72;;;17.87;75.38
7940;BME280;4015;48.888;9.226;2023-07-31T05:20:10;159691.03;;;17.70;75.45
7940;BME280;4015;48.888;9.226;2023-07-31T05:22:35;159687.22;;;17.68;76.28
7940;BME280;4015;48.888;9.226;2023-07-31T05:25:01;159714.22;;;17.79;76.67
7940;BME280;4015;48.888;9.226;2023-07-31T05:27:26;159766.81;;;18.00;74.98
7940;BME280;4015;48.888;9.226;2023-07-31T05:29:51;159825.84;;;18.23;74.65
7940;BME280;4015;48.888;9.226;2023-07-31T05:32:17;159869.44;;;18.41;74.71
7940;BME280;4015;48.888;9.226;2023-07-31T05:34:42;159932.31;;;18.66;74.51
7940;BME280;4015;48.888;9.226;2023-07-31T05:37:10;159995.28;;;18.91;73.59
7940;BME280;4015;48.888;9.226;2023-07-31T05:39:35;160024.81;;;19.02;72.45
7940;BME280;4015;48.888;9.226;2023-07-31T05:42:00;160105.69;;;19.34;71.95
7940;BME280;4015;48.888;9.226;2023-07-31T05:44:26;160139.06;;;19.48;71.78
7940;BME280;4015;48.888;9.226;2023-07-31T05:46:51;160144.25;;;19.50;70.77
7940;BME280;4015;48.888;9.226;2023-07-31T05:49:16;160184.09;;;19.65;70.35
7940;BME280;4015;48.888;9.226;2023-07-31T05:51:41;160200.78;;;19.72;69.40
7940;BME280;4015;48.888;9.226;2023-07-31T05:54:07;160191.81;;;19.69;70.50
7940;BME280;4015;48.888;9.226;2023-07-31T05:56:32;160149.38;;;19.52;72.08
7940;BME280;4015;48.888;9.226;2023-07-31T05:58:59;160145.53;;;19.50;70.91
7940;BME280;4015;48.888;9.226;2023-07-31T06:01:24;160128.84;;;19.44;71.83
7940;BME280;4015;48.888;9.226;2023-07-31T06:03:51;160139.06;;;19.48;72.62
7940;BME280;4015;48.888;9.226;2023-07-31T06:06:16;160155.78;;;19.54;71.77
7940;BME280;4015;48.888;9.226;2023-07-31T06:08:41;160186.66;;;19.66;70.02
7940;BME280;4015;48.888;9.226;2023-07-31T06:11:07;160136.50;;;19.47;71.70
7940;BME280;4015;48.888;9.226;2023-07-31T06:13:34;160189.25;;;19.67;70.53
7940;BME280;4015;48.888;9.226;2023-07-31T06:15:59;160195.66;;;19.70;71.22
7940;BME280;4015;48.888;9.226;2023-07-31T06:18:25;160262.44;;;19.97;69.53
7940;BME280;4015;48.888;9.226;2023-07-31T06:20:50;160304.84;;;20.13;69.55
7940;BME280;4015;48.888;9.226;2023-07-31T06:23:19;160360.06;;;20.35;68.64
7940;BME280;4015;48.888;9.226;2023-07-31T06:25:44;160430.81;;;20.63;68.41
7940;BME280;4015;48.888;9.226;2023-07-31T06:28:10;160561.88;;;21.15;65.72
7940;BME280;4015;48.888;9.226;2023-07-31T06:30:35;160619.78;;;21.38;63.59
7940;BME280;4015;48.888;9.226;2023-07-31T06:33:00;160672.47;;;21.59;62.53
7940;BME280;4015;48.888;9.226;2023-07-31T06:35:26;160681.50;;;21.63;62.36
7940;BME280;4015;48.888;9.226;2023-07-31T06:37:51;160714.91;;;21.76;61.82
7940;BME280;4015;48.888;9.226;2023-07-31T06:40:16;160808.84;;;22.13;61.95
7940;BME280;4015;48.888;9.226;2023-07-31T06:42:42;160916.84;;;22.56;59.64
7940;BME280;4015;48.888;9.226;2023-07-31T06:45:07;160897.56;;;22.48;59.44
7940;BME280;4015;48.888;9.226;2023-07-31T06:47:33;160940.00;;;22.65;59.22
7940;BME280;4015;48.888;9.226;2023-07-31T06:49:58;160941.28;;;22.66;59.36
7940;BME280;4015;48.888;9.226;2023-07-31T06:52:24;161008.22;;;22.92;58.73
7940;BME280;4015;48.888;9.226;2023-07-31T06:55:03;161148.47;;;23.48;58.70
7940;BME280;4015;48.888;9.226;2023-07-31T06:57:29;161404.72;;;24.49;56.50
7940;BME280;4015;48.888;9.226;2023-07-31T06:59:54;161583.75;;;25.20;55.45
7940;BME280;4015;48.888;9.226;2023-07-31T07:02:20;161768.03;;;25.93;51.99
7940;BME280;4015;48.888;9.226;2023-07-31T07:04:45;161885.28;;;26.39;50.71
7940;BME280;4015;48.888;9.226;2023-07-31T07:07:11;161907.28;;;26.48;49.95
7940;BME280;4015;48.888;9.226;2023-07-31T07:09:36;161802.81;;;26.06;50.78
7940;BME280;4015;48.888;9.226;2023-07-31T07:12:02;161634.03;;;25.40;51.68
7940;BME280;4015;48.888;9.226;2023-07-31T07:14:27;161625.00;;;25.36;51.97
7940;BME280;4015;48.888;9.226;2023-07-31T07:16:52;161533.50;;;25.00;52.56
7940;BME280;4015;48.888;9.226;2023-07-31T07:19:18;161496.16;;;24.85;53.08
7940;BME280;4015;48.888;9.226;2023-07-31T07:21:43;161569.63;;;25.14;53.63
7940;BME280;4015;48.888;9.226;2023-07-31T07:24:08;161599.22;;;25.26;52.29
7940;BME280;4015;48.888;9.226;2023-07-31T07:26:34;161675.22;;;25.56;52.61
7940;BME280;4015;48.888;9.226;2023-07-31T07:28:59;161740.97;;;25.82;52.28
7940;BME280;4015;48.888;9.226;2023-07-31T07:31:27;161761.63;;;25.90;51.41
7940;BME280;4015;48.888;9.226;2023-07-31T07:33:52;161774.47;;;25.95;50.83
7940;BME280;4015;48.888;9.226;2023-07-31T07:36:18;161547.72;;;25.06;53.03
7940;BME280;4015;48.888;9.226;2023-07-31T07:38:43;161409.88;;;24.51;55.02
7940;BME280;4015;48.888;9.226;2023-07-31T07:41:08;161290.13;;;24.04;56.90
7940;BME280;4015;48.888;9.226;2023-07-31T07:43:34;161257.94;;;23.91;56.47
7940;BME280;4015;48.888;9.226;2023-07-31T07:45:59;161212.88;;;23.73;56.68
7940;BME280;4015;48.888;9.226;2023-07-31T07:48:24;161382.84;;;24.40;55.63
7940;BME280;4015;48.888;9.226;2023-07-31T07:50:50;161726.78;;;25.76;52.62
7940;BME280;4015;48.888;9.226;2023-07-31T07:53:16;161689.41;;;25.62;51.21
7940;BME280;4015;48.888;9.226;2023-07-31T07:55:41;161691.97;;;25.63;52.30
7940;BME280;4015;48.888;9.226;2023-07-31T07:58:07;161802.81;;;26.06;51.77
7940;BME280;4015;48.888;9.226;2023-07-31T08:00:33;161875.00;;;26.35;50.67
7940;BME280;4015;48.888;9.226;2023-07-31T08:02:58;161639.16;;;25.42;52.69
7940;BME280;4015;48.888;9.226;2023-07-31T08:05:23;161564.44;;;25.12;52.11
7940;BME280;4015;48.888;9.226;2023-07-31T08:07:49;161618.56;;;25.34;53.21
7940;BME280;4015;48.888;9.226;2023-07-31T08:10:14;161550.28;;;25.07;54.47
7940;BME280;4015;48.888;9.226;2023-07-31T08:12:39;162040.00;;;27.00;49.98
7940;BME280;4015;48.888;9.226;2023-07-31T08:15:06;162618.00;;;29.28;49.43
7940;BME280;4015;48.888;9.226;2023-07-31T08:17:31;162695.47;;;29.59;46.68
7940;BME280;4015;48.888;9.226;2023-07-31T08:19:56;162461.88;;;28.67;46.02
7940;BME280;4015;48.888;9.226;2023-07-31T08:22:23;162430.91;;;28.55;46.14
7940;BME280;4015;48.888;9.226;2023-07-31T08:24:49;162310.88;;;28.07;45.94
7940;BME280;4015;48.888;9.226;2023-07-31T08:27:14;162420.56;;;28.51;46.41
7940;BME280;4015;48.888;9.226;2023-07-31T08:29:39;162352.16;;;28.23;48.25
7940;BME280;4015;48.888;9.226;2023-07-31T08:32:05;162406.38;;;28.45;47.28
7940;BME280;4015;48.888;9.226;2023-07-31T08:34:30;162216.72;;;27.70;48.46
7940;BME280;4015;48.888;9.226;2023-07-31T08:36:56;162388.31;;;28.38;49.49
7940;BME280;4015;48.888;9.226;2023-07-31T08:39:21;162780.69;;;29.93;43.45
7940;BME280;4015;48.888;9.226;2023-07-31T08:41:47;162739.38;;;29.76;44.17
7940;BME280;4015;48.888;9.226;2023-07-31T08:44:14;162491.50;;;28.79;44.83
7940;BME280;4015;48.888;9.226;2023-07-31T08:46:40;162445.09;;;28.60;45.97
7940;BME280;4015;48.888;9.226;2023-07-31T08:49:07;162661.88;;;29.46;45.61
7940;BME280;4015;48.888;9.226;2023-07-31T08:51:36;162836.22;;;30.15;44.40
7940;BME280;4015;48.888;9.226;2023-07-31T08:54:02;162953.69;;;30.61;42.92
7940;BME280;4015;48.888;9.226;2023-07-31T08:56:29;162935.63;;;30.54;43.54
7940;BME280;4015;48.888;9.226;2023-07-31T08:58:56;162659.31;;;29.45;44.22
7940;BME280;4015;48.888;9.226;2023-07-31T09:01:23;162610.28;;;29.25;44.78
7940;BME280;4015;48.888;9.226;2023-07-31T09:03:49;162557.38;;;29.05;45.71
7940;BME280;4015;48.888;9.226;2023-07-31T09:06:18;162663.16;;;29.46;46.02
7940;BME280;4015;48.888;9.226;2023-07-31T09:08:44;162765.19;;;29.87;44.19
7940;BME280;4015;48.888;9.226;2023-07-31T09:11:09;162758.72;;;29.84;44.17
7940;BME280;4015;48.888;9.226;2023-07-31T09:13:35;162619.28;;;29.29;45.04
7940;BME280;4015;48.888;9.226;2023-07-31T09:16:01;162629.63;;;29.33;44.88
7940;BME280;4015;48.888;9.226;2023-07-31T09:18:27;162437.34;;;28.57;46.33
7940;BME280;4015;48.888;9.226;2023-07-31T09:21:05;162283.78;;;27.96;47.38
7940;BME280;4015;48.888;9.226;2023-07-31T09:23:45;162381.88;;;28.35;45.99
7940;BME280;4015;48.888;9.226;2023-07-31T09:26:10;162308.31;;;28.06;46.15
7940;BME280;4015;48.888;9.226;2023-07-31T09:28:36;162190.91;;;27.60;49.89
7940;BME280;4015;48.888;9.226;2023-07-31T09:31:01;162027.09;;;26.95;50.85
7940;BME280;4015;48.888;9.226;2023-07-31T09:33:27;161991.03;;;26.81;50.70
7940;BME280;4015;48.888;9.226;2023-07-31T09:35:52;162074.84;;;27.14;48.98
7940;BME280;4015;48.888;9.226;2023-07-31T09:38:18;161933.00;;;26.58;50.01
7940;BME280;4015;48.888;9.226;2023-07-31T09:40:45;161880.13;;;26.37;51.27
7940;BME280;4015;48.888;9.226;2023-07-31T09:43:18;161719.09;;;25.73;50.33
7940;BME280;4015;48.888;9.226;2023-07-31T09:45:44;161759.00;;;25.89;52.79
7940;BME280;4015;48.888;9.226;2023-07-31T09:48:12;161650.78;;;25.46;53.35
7940;BME280;4015;48.888;9.226;2023-07-31T09:50:39;161613.38;;;25.32;54.93
7940;BME280;4015;48.888;9.226;2023-07-31T09:53:06;161572.19;;;25.15;52.94
7940;BME280;4015;48.888;9.226;2023-07-31T09:55:32;161601.84;;;25.27;54.48
7940;BME280;4015;48.888;9.226;2023-07-31T09:57:57;161827.31;;;26.16;51.05
7940;BME280;4015;48.888;9.226;2023-07-31T10:00:24;161907.28;;;26.48;50.89
7940;BME280;4015;48.888;9.226;2023-07-31T10:02:52;162527.69;;;28.93;48.07
7940;BME280;4015;48.888;9.226;2023-07-31T10:05:19;162576.72;;;29.12;45.21
7940;BME280;4015;48.888;9.226;2023-07-31T10:08:03;162446.38;;;28.61;47.07
7940;BME280;4015;48.888;9.226;2023-07-31T10:10:30;162393.47;;;28.40;46.87
7940;BME280;4015;48.888;9.226;2023-07-31T10:12:56;162267.00;;;27.90;48.07
7940;BME280;4015;48.888;9.226;2023-07-31T10:15:23;162250.25;;;27.83;48.75
7940;BME280;4015;48.888;9.226;2023-07-31T10:17:50;162025.81;;;26.95;49.14
7940;BME280;4015;48.888;9.226;2023-07-31T10:20:16;162301.88;;;28.04;47.19
7940;BME280;4015;48.888;9.226;2023-07-31T10:22:42;162874.97;;;30.30;42.89
7940;BME280;4015;48.888;9.226;2023-07-31T10:25:08;162726.44;;;29.71;46.08
7940;BME280;4015;48.888;9.226;2023-07-31T10:27:35;162628.31;;;29.33;45.47
7940;BME280;4015;48.888;9.226;2023-07-31T10:30:03;162299.25;;;28.03;46.72
7940;BME280;4015;48.888;9.226;2023-07-31T10:32:30;162202.50;;;27.64;46.19
7940;BME280;4015;48.888;9.226;2023-07-31T10:34:55;162375.41;;;28.33;46.51
7940;BME280;4015;48.888;9.226;2023-07-31T10:37:27;162274.78;;;27.93;47.29
7940;BME280;4015;48.888;9.226;2023-07-31T10:40:04;162205.06;;;27.65;47.60
7940;BME280;4015;48.888;9.226;2023-07-31T10:42:38;162265.72;;;27.89;47.35
7940;BME280;4015;48.888;9.226;2023-07-31T10:45:09;162099.38;;;27.24;47.37
7940;BME280;4015;48.888;9.226;2023-07-31T10:47:47;162184.44;;;27.57;48.43
7940;BME280;4015;48.888;9.226;2023-07-31T10:50:20;162179.31;;;27.55;48.03
7940;BME280;4015;48.888;9.226;2023-07-31T10:52:47;162178.03;;;27.55;47.91
7940;BME280;4015;48.888;9.226;2023-07-31T10:55:27;162487.63;;;28.77;46.16
7940;BME280;4015;48.888;9.226;2023-07-31T10:57:56;162385.75;;;28.37;46.52
7940;BME280;4015;48.888;9.226;2023-07-31T11:00:29;162916.25;;;30.46;44.37
7940;BME280;4015;48.888;9.226;2023-07-31T11:03:07;163055.75;;;31.01;41.81
7940;BME280;4015;48.888;9.226;2023-07-31T11:10:36;164249.25;;;35.72;36.93
7940;BME280;4015;48.888;9.226;2023-07-31T11:13:04;164671.28;;;37.38;36.17
7940;BME280;4015;48.888;9.226;2023-07-31T11:15:29;163945.19;;;34.52;36.80
7940;BME280;4015;48.888;9.226;2023-07-31T11:17:55;163523.53;;;32.86;38.14
7940;BME280;4015;48.888;9.226;2023-07-31T11:20:24;163855.91;;;34.17;37.41
7940;BME280;4015;48.888;9.226;2023-07-31T11:22:49;163651.53;;;33.36;38.14
7940;BME280;4015;48.888;9.226;2023-07-31T11:25:15;163377.47;;;32.28;38.70
7940;BME280;4015;48.888;9.226;2023-07-31T11:27:41;163230.19;;;31.70;39.83
7940;BME280;4015;48.888;9.226;2023-07-31T11:30:09;162859.47;;;30.24;43.91
7940;BME280;4015;48.888;9.226;2023-07-31T11:32:36;162416.69;;;28.49;45.79
7940;BME280;4015;48.888;9.226;2023-07-31T11:35:02;162419.28;;;28.50;44.11
7940;BME280;4015;48.888;9.226;2023-07-31T11:37:39;162430.91;;;28.55;46.61
7940;BME280;4015;48.888;9.226;2023-07-31T11:40:06;162265.72;;;27.89;47.34
7940;BME280;4015;48.888;9.226;2023-07-31T11:42:31;162175.44;;;27.54;48.81
7940;BME280;4015;48.888;9.226;2023-07-31T11:44:56;162166.41;;;27.50;49.17
7940;BME280;4015;48.888;9.226;2023-07-31T11:47:22;162188.31;;;27.59;47.84
7940;BME280;4015;48.888;9.226;2023-07-31T11:49:48;162152.22;;;27.45;45.76
7940;BME280;4015;48.888;9.226;2023-07-31T11:52:14;162170.25;;;27.52;48.61
7940;BME280;4015;48.888;9.226;2023-07-31T11:54:40;162126.47;;;27.34;50.17
7940;BME280;4015;48.888;9.226;2023-07-31T11:57:06;162163.81;;;27.49;50.68
7940;BME280;4015;48.888;9.226;2023-07-31T11:59:32;162180.59;;;27.56;48.68
7940;BME280;4015;48.888;9.226;2023-07-31T12:01:58;162201.19;;;27.64;49.35
7940;BME280;4015;48.888;9.226;2023-07-31T12:04:24;162255.44;;;27.85;49.59
7940;BME280;4015;48.888;9.226;2023-07-31T12:06:53;162698.03;;;29.60;46.31
7940;BME280;4015;48.888;9.226;2023-07-31T12:09:19;162882.69;;;30.33;45.16
7940;BME280;4015;48.888;9.226;2023-07-31T12:11:46;162872.34;;;30.29;46.14
7940;BME280;4015;48.888;9.226;2023-07-31T12:14:38;162698.03;;;29.60;45.43
7940;BME280;4015;48.888;9.226;2023-07-31T12:17:06;162519.88;;;28.90;47.37
7940;BME280;4015;48.888;9.226;2023-07-31T12:19:32;162562.53;;;29.07;45.53
7940;BME280;4015;48.888;9.226;2023-07-31T12:21:59;162477.34;;;28.73;46.79
7940;BME280;4015;48.888;9.226;2023-07-31T12:24:28;162385.75;;;28.37;46.17
7940;BME280;4015;48.888;9.226;2023-07-31T12:26:53;162172.81;;;27.53;47.10
7940;BME280;4015;48.888;9.226;2023-07-31T12:29:20;162183.16;;;27.57;48.32
7940;BME280;4015;48.888;9.226;2023-07-31T12:31:45;162396.03;;;28.41;50.00
7940;BME280;4015;48.888;9.226;2023-07-31T12:34:18;162638.66;;;29.37;45.95
7940;BME280;4015;48.888;9.226;2023-07-31T12:36:44;163152.66;;;31.39;42.68
7940;BME280;4015;48.888;9.226;2023-07-31T12:39:09;163456.34;;;32.59;42.98
7940;BME280;4015;48.888;9.226;2023-07-31T12:41:35;163475.72;;;32.67;39.89
7940;BME280;4015;48.888;9.226;2023-07-31T12:44:00;163330.97;;;32.10;42.55
7940;BME280;4015;48.888;9.226;2023-07-31T12:46:25;163153.94;;;31.40;43.95
7940;BME280;4015;48.888;9.226;2023-07-31T12:48:51;162836.22;;;30.15;44.25
7940;BME280;4015;48.888;9.226;2023-07-31T12:51:16;162735.50;;;29.75;46.36
7940;BME280;4015;48.888;9.226;2023-07-31T12:53:41;162574.16;;;29.11;48.57
7940;BME280;4015;48.888;9.226;2023-07-31T12:56:07;162636.09;;;29.36;45.38
7940;BME280;4015;48.888;9.226;2023-07-31T12:58:32;162700.66;;;29.61;45.96
7940;BME280;4015;48.888;9.226;2023-07-31T13:00:57;162562.53;;;29.07;47.01
7940;BME280;4015;48.888;9.226;2023-07-31T13:03:23;162525.13;;;28.92;46.25
7940;BME280;4015;48.888;9.226;2023-07-31T13:05:48;162550.91;;;29.02;48.03
7940;BME280;4015;48.888;9.226;2023-07-31T13:08:14;162536.72;;;28.96;46.13
7940;BME280;4015;48.888;9.226;2023-07-31T13:10:41;162429.63;;;28.54;49.59
7940;BME280;4015;48.888;9.226;2023-07-31T13:13:06;162375.41;;;28.33;49.40
7940;BME280;4015;48.888;9.226;2023-07-31T13:15:32;162361.16;;;28.27;48.18
7940;BME280;4015;48.888;9.226;2023-07-31T13:17:57;162285.06;;;27.97;46.40